Time;durP1;ratioP1;P1;durP2;ratioP2;P2;SDS_P1;SDS_P2;PMS_P1;PMS_P2;Temp;Humidity;BMP_temperature;BMP_pressure;BME280_temperature;BME280_humidity;BME280_pressure;Samples;Min_cycle;Max_cycle;Signal;HPM_P1;HPM_P2
2021/08/21 00:01:23;;;;;;;18.73;11.67;;;14.40;99.90;;;;;;4321480;33;20410;-72
2021/08/21 00:03:50;;;;;;;20.07;11.00;;;14.40;99.90;;;;;;4321559;33;20144;-71
2021/08/21 00:06:17;;;;;;;18.77;10.77;;;14.40;99.90;;;;;;4321407;33;20157;-71
2021/08/21 00:08:44;;;;;;;19.07;11.03;;;14.40;99.90;;;;;;4319992;33;20495;-72
2021/08/21 00:11:11;;;;;;;20.60;11.40;;;14.50;99.90;;;;;;4318911;33;20207;-72
2021/08/21 00:13:38;;;;;;;21.97;11.60;;;14.40;99.90;;;;;;4320702;33;20183;-73
2021/08/21 00:16:04;;;;;;;20.87;11.20;;;14.50;99.90;;;;;;4320517;33;20243;-72
2021/08/21 00:18:33;;;;;;;19.30;11.43;;;14.40;99.90;;;;;;4321016;33;20173;-72
2021/08/21 00:21:00;;;;;;;19.50;11.43;;;14.50;99.90;;;;;;4321397;33;20133;-73
2021/08/21 00:23:26;;;;;;;28.53;12.37;;;14.50;99.90;;;;;;4321248;33;20129;-72
2021/08/21 00:25:53;;;;;;;21.07;12.20;;;14.50;99.90;;;;;;4320550;33;20156;-72
2021/08/21 00:28:20;;;;;;;19.67;12.20;;;14.50;99.90;;;;;;4318620;33;20188;-73
2021/08/21 00:30:47;;;;;;;18.70;11.80;;;14.60;99.90;;;;;;4320284;33;20180;-72
2021/08/21 00:33:14;;;;;;;17.87;10.67;;;14.60;99.90;;;;;;4320279;33;20145;-73
2021/08/21 00:35:40;;;;;;;21.27;11.50;;;14.60;99.90;;;;;;4320637;33;20172;-72
2021/08/21 00:38:07;;;;;;;21.03;12.53;;;14.70;99.90;;;;;;4320959;33;20261;-73
2021/08/21 00:40:34;;;;;;;21.03;12.50;;;14.60;99.90;;;;;;4318942;33;20163;-73
2021/08/21 00:43:01;;;;;;;20.50;12.30;;;14.70;99.90;;;;;;4320088;33;20137;-73
2021/08/21 00:45:28;;;;;;;23.87;13.03;;;14.70;99.90;;;;;;4319333;33;20401;-73
2021/08/21 00:47:55;;;;;;;21.97;12.80;;;14.70;99.90;;;;;;4320828;33;20188;-74
2021/08/21 00:50:22;;;;;;;21.20;13.37;;;14.70;99.90;;;;;;4319200;33;20168;-74
2021/08/21 00:52:49;;;;;;;24.37;13.97;;;14.70;99.90;;;;;;4319034;33;20219;-72
2021/08/21 00:55:16;;;;;;;24.80;13.30;;;14.70;99.90;;;;;;4319105;33;20189;-72
2021/08/21 00:57:43;;;;;;;23.73;14.13;;;14.70;99.90;;;;;;4320461;33;20160;-72
2021/08/21 01:00:10;;;;;;;26.07;14.47;;;14.80;99.90;;;;;;4319266;33;20137;-73
2021/08/21 01:02:38;;;;;;;28.13;14.87;;;14.90;99.90;;;;;;4319747;33;20184;-72
2021/08/21 01:05:07;;;;;;;26.63;14.57;;;14.90;99.90;;;;;;4319047;33;20354;-73
2021/08/21 01:07:36;;;;;;;25.43;14.63;;;14.90;99.90;;;;;;4319728;33;20196;-72
2021/08/21 01:10:05;;;;;;;30.43;16.37;;;14.90;99.90;;;;;;4320607;33;20133;-73
2021/08/21 01:12:34;;;;;;;29.67;16.40;;;14.90;99.90;;;;;;4318868;33;20418;-74
2021/08/21 01:15:01;;;;;;;30.43;16.57;;;14.90;99.90;;;;;;4319957;33;20142;-73
2021/08/21 01:17:28;;;;;;;31.40;17.80;;;14.90;99.90;;;;;;4319699;33;20183;-73
2021/08/21 01:19:55;;;;;;;29.10;16.80;;;14.90;99.90;;;;;;4320634;33;20140;-73
2021/08/21 01:22:25;;;;;;;36.90;18.10;;;14.90;99.90;;;;;;4318947;33;20364;-73
2021/08/21 01:24:57;;;;;;;31.37;17.93;;;15.00;99.90;;;;;;4318575;33;20483;-73
2021/08/21 01:27:26;;;;;;;35.93;19.63;;;15.00;99.90;;;;;;4319600;33;20160;-73
2021/08/21 01:29:53;;;;;;;38.63;20.10;;;15.00;99.90;;;;;;4319611;33;20191;-73
2021/08/21 01:32:21;;;;;;;38.17;20.63;;;15.00;99.90;;;;;;4320072;33;20453;-73
2021/08/21 01:34:49;;;;;;;37.57;20.13;;;15.00;99.90;;;;;;4318689;33;20143;-74
2021/08/21 01:37:18;;;;;;;36.07;20.10;;;15.00;99.90;;;;;;4319982;33;20362;-73
2021/08/21 01:39:46;;;;;;;43.10;20.40;;;15.10;99.90;;;;;;4320321;33;20159;-73
2021/08/21 01:42:13;;;;;;;42.30;21.33;;;15.20;99.90;;;;;;4318512;33;20534;-72
2021/08/21 01:44:41;;;;;;;39.90;21.07;;;15.20;99.90;;;;;;4320244;33;20136;-72
2021/08/21 01:47:09;;;;;;;39.63;20.87;;;15.20;99.90;;;;;;4318838;33;20138;-72
2021/08/21 01:49:43;;;;;;;39.63;20.63;;;15.30;99.90;;;;;;4318659;33;20188;-73
2021/08/21 01:52:10;;;;;;;43.77;22.10;;;15.20;99.90;;;;;;4318654;33;20129;-73
2021/08/21 01:54:37;;;;;;;38.40;21.57;;;15.20;99.90;;;;;;4318403;33;20160;-72
2021/08/21 01:57:06;;;;;;;45.47;22.30;;;15.20;99.90;;;;;;4319504;33;20146;-72
2021/08/21 01:59:35;;;;;;;46.40;23.07;;;15.20;99.90;;;;;;4318724;33;20141;-72
2021/08/21 02:02:05;;;;;;;47.53;23.77;;;15.10;99.90;;;;;;4319996;33;20187;-72
2021/08/21 02:04:32;;;;;;;53.53;24.60;;;15.20;99.90;;;;;;4319932;33;20241;-72
2021/08/21 02:06:59;;;;;;;54.50;24.37;;;15.10;99.90;;;;;;4320152;33;20215;-72
2021/08/21 02:09:28;;;;;;;50.30;24.50;;;15.10;99.90;;;;;;4318434;33;20133;-72
2021/08/21 02:11:56;;;;;;;50.03;24.37;;;15.10;99.90;;;;;;4320255;33;20138;-72
2021/08/21 02:14:24;;;;;;;47.53;22.93;;;15.20;99.90;;;;;;4317392;33;20217;-72
2021/08/21 02:16:53;;;;;;;49.03;23.87;;;15.10;99.90;;;;;;4317834;33;20176;-73
2021/08/21 02:19:21;;;;;;;55.53;25.03;;;15.10;99.90;;;;;;4318648;33;20491;-73
2021/08/21 02:21:49;;;;;;;53.97;25.00;;;15.10;99.90;;;;;;4317889;33;20149;-72
2021/08/21 02:24:17;;;;;;;55.67;26.03;;;15.00;99.90;;;;;;4319044;33;20184;-73
2021/08/21 02:26:45;;;;;;;54.67;24.83;;;15.10;99.90;;;;;;4319259;33;20145;-73
2021/08/21 02:29:15;;;;;;;59.50;27.03;;;15.10;99.90;;;;;;4321997;33;20153;-73
2021/08/21 02:31:41;;;;;;;60.60;26.07;;;15.00;99.90;;;;;;4322757;33;20175;-73
2021/08/21 02:34:08;;;;;;;66.10;27.30;;;15.00;99.90;;;;;;4322456;33;20130;-73
2021/08/21 02:36:35;;;;;;;65.07;28.77;;;15.00;99.90;;;;;;4320757;33;20372;-73
2021/08/21 02:39:03;;;;;;;65.27;26.30;;;15.00;99.90;;;;;;4322120;33;20141;-73
2021/08/21 02:41:29;;;;;;;61.43;27.43;;;15.00;99.90;;;;;;4321016;33;20137;-73
2021/08/21 02:43:56;;;;;;;67.20;27.03;;;15.10;99.90;;;;;;4321438;33;20487;-73
2021/08/21 02:46:23;;;;;;;66.87;28.10;;;15.20;99.90;;;;;;4322179;33;20137;-73
2021/08/21 02:48:50;;;;;;;79.33;30.03;;;15.10;99.90;;;;;;4320905;33;20134;-73
2021/08/21 02:51:17;;;;;;;71.20;29.40;;;15.20;99.90;;;;;;4322005;33;20404;-73
2021/08/21 02:53:43;;;;;;;76.37;30.77;;;15.20;99.90;;;;;;4321104;33;20133;-73
2021/08/21 02:56:10;;;;;;;77.27;30.50;;;15.00;99.90;;;;;;4320612;33;20417;-73
2021/08/21 02:58:37;;;;;;;73.87;30.00;;;15.00;99.90;;;;;;4321053;33;20188;-74
2021/08/21 03:01:05;;;;;;;81.47;30.93;;;15.00;99.90;;;;;;4320942;33;20175;-74
2021/08/21 03:03:32;;;;;;;75.50;29.73;;;15.00;99.90;;;;;;4321049;33;20137;-74
2021/08/21 03:05:59;;;;;;;76.50;29.77;;;15.00;99.90;;;;;;4321596;33;20244;-73
2021/08/21 03:08:25;;;;;;;76.87;30.13;;;14.90;99.90;;;;;;4320575;33;20164;-73
2021/08/21 03:10:52;;;;;;;77.27;29.00;;;15.00;99.90;;;;;;4321939;33;20207;-73
2021/08/21 03:13:19;;;;;;;75.60;30.33;;;14.90;99.90;;;;;;4321792;33;20223;-73
2021/08/21 03:15:46;;;;;;;74.90;30.17;;;15.00;99.90;;;;;;4321032;33;20165;-73
2021/08/21 03:18:13;;;;;;;73.87;29.97;;;14.90;99.90;;;;;;4322020;33;20163;-73
2021/08/21 03:20:40;;;;;;;87.70;31.87;;;14.90;99.90;;;;;;4321756;33;20142;-73
2021/08/21 03:23:06;;;;;;;80.37;31.67;;;14.90;99.90;;;;;;4321135;33;20469;-73
2021/08/21 03:25:33;;;;;;;89.03;33.80;;;14.90;99.90;;;;;;4321887;33;20430;-73
2021/08/21 03:28:00;;;;;;;85.50;31.90;;;14.80;99.90;;;;;;4320310;33;20133;-73
2021/08/21 03:30:28;;;;;;;98.23;33.53;;;14.80;99.90;;;;;;4320369;33;20204;-73
2021/08/21 03:32:55;;;;;;;100.23;34.30;;;14.90;99.90;;;;;;4320625;33;20152;-73
2021/08/21 03:35:22;;;;;;;97.90;34.03;;;14.90;99.90;;;;;;4320786;33;20217;-73
2021/08/21 03:37:48;;;;;;;98.03;34.30;;;14.90;99.90;;;;;;4320025;33;20133;-73
2021/08/21 03:40:16;;;;;;;97.57;35.47;;;14.80;99.90;;;;;;4319930;33;20491;-73
2021/08/21 03:42:43;;;;;;;107.10;35.87;;;14.80;99.90;;;;;;4320625;33;20167;-73
2021/08/21 03:45:10;;;;;;;112.67;35.93;;;14.80;99.90;;;;;;4320246;33;20192;-73
2021/08/21 03:47:37;;;;;;;105.60;36.07;;;14.80;99.90;;;;;;4320597;33;20222;-73
2021/08/21 03:50:05;;;;;;;110.20;36.23;;;14.80;99.90;;;;;;4321770;33;20145;-74
2021/08/21 03:52:32;;;;;;;107.43;36.27;;;14.80;99.90;;;;;;4320673;33;20461;-73
2021/08/21 03:54:58;;;;;;;111.30;35.77;;;14.90;99.90;;;;;;4320938;33;20146;-73
2021/08/21 03:57:25;;;;;;;104.63;35.30;;;14.90;99.90;;;;;;4321437;33;20141;-73
2021/08/21 03:59:52;;;;;;;105.93;34.13;;;14.90;99.90;;;;;;4321633;33;20429;-74
2021/08/21 04:02:19;;;;;;;101.07;34.60;;;14.90;99.90;;;;;;4308114;33;20208;-73
2021/08/21 04:04:46;;;;;;;104.10;33.17;;;14.90;99.90;;;;;;4320539;33;20241;-73
2021/08/21 04:07:18;;;;;;;100.77;34.20;;;14.90;99.90;;;;;;4319772;33;20187;-73
2021/08/21 04:09:45;;;;;;;93.40;33.90;;;14.90;99.90;;;;;;4321068;33;20204;-73
2021/08/21 04:12:18;;;;;;;100.20;33.67;;;15.00;99.90;;;;;;4321218;33;20145;-73
2021/08/21 04:14:45;;;;;;;92.80;32.57;;;15.00;99.90;;;;;;4320550;33;20555;-73
2021/08/21 04:17:13;;;;;;;89.73;32.47;;;15.10;99.90;;;;;;4321167;33;20190;-73
2021/08/21 04:19:39;;;;;;;90.40;30.43;;;15.10;99.90;;;;;;4319226;33;20200;-73
2021/08/21 04:22:06;;;;;;;83.63;30.00;;;15.10;99.90;;;;;;4319586;33;20215;-73
2021/08/21 04:24:33;;;;;;;80.00;30.10;;;15.10;99.90;;;;;;4319439;33;20133;-73
2021/08/21 04:27:00;;;;;;;73.93;29.90;;;15.10;99.90;;;;;;4319177;33;20145;-73
2021/08/21 04:29:27;;;;;;;72.03;29.20;;;15.10;99.90;;;;;;4320623;33;20144;-73
2021/08/21 04:31:53;;;;;;;75.10;29.13;;;15.20;99.90;;;;;;4319129;33;20384;-73
2021/08/21 04:34:20;;;;;;;64.97;27.63;;;15.20;99.90;;;;;;4319808;33;20197;-73
2021/08/21 04:36:47;;;;;;;67.87;28.87;;;15.20;99.90;;;;;;4319406;33;20191;-73
2021/08/21 04:39:14;;;;;;;64.90;27.97;;;15.20;99.90;;;;;;4320979;33;20403;-72
2021/08/21 04:41:40;;;;;;;59.47;25.50;;;15.20;99.90;;;;;;4319762;33;20191;-72
2021/08/21 04:44:07;;;;;;;59.73;25.77;;;15.30;99.90;;;;;;4319414;33;20473;-72
2021/08/21 04:46:35;;;;;;;57.43;24.97;;;15.20;99.90;;;;;;4320936;33;20136;-72
2021/08/21 04:49:03;;;;;;;52.10;23.93;;;15.30;99.90;;;;;;4319118;33;20129;-72
2021/08/21 04:51:30;;;;;;;50.50;23.63;;;15.30;99.90;;;;;;4319376;33;20187;-72
2021/08/21 04:53:57;;;;;;;47.37;22.57;;;15.30;99.90;;;;;;4319358;33;20169;-73
2021/08/21 04:56:23;;;;;;;50.27;24.13;;;15.30;99.90;;;;;;4320190;33;20191;-72
2021/08/21 04:58:50;;;;;;;44.23;22.63;;;15.20;99.90;;;;;;4319089;33;20145;-73
2021/08/21 05:01:17;;;;;;;42.27;21.90;;;15.10;99.90;;;;;;4320537;33;20177;-73
2021/08/21 05:03:44;;;;;;;45.57;21.77;;;15.10;99.90;;;;;;4318868;33;20500;-73
2021/08/21 05:06:11;;;;;;;44.30;20.97;;;15.20;99.90;;;;;;4319561;33;20165;-73
2021/08/21 05:08:38;;;;;;;44.10;21.30;;;15.20;99.90;;;;;;4319739;33;20164;-73
2021/08/21 05:11:04;;;;;;;38.93;20.90;;;15.20;99.90;;;;;;4318866;33;20192;-74
2021/08/21 05:13:31;;;;;;;41.90;21.23;;;15.20;99.90;;;;;;4320725;33;20192;-73
2021/08/21 05:15:58;;;;;;;43.80;22.10;;;15.20;99.90;;;;;;4320416;33;20346;-73
2021/08/21 05:18:32;;;;;;;46.77;21.33;;;15.20;99.90;;;;;;4320294;33;20129;-73
2021/08/21 05:21:12;;;;;;;46.80;22.87;;;15.30;99.90;;;;;;4319212;33;20409;-73
2021/08/21 05:23:40;;;;;;;43.57;21.67;;;15.30;99.90;;;;;;4319466;33;20133;-73
2021/08/21 05:26:08;;;;;;;43.70;21.67;;;15.30;99.90;;;;;;4320388;33;20195;-73
2021/08/21 05:28:36;;;;;;;42.37;22.13;;;15.30;99.90;;;;;;4320557;33;20133;-73
2021/08/21 05:31:02;;;;;;;41.13;20.70;;;15.40;99.90;;;;;;4318471;33;20176;-73
2021/08/21 05:33:29;;;;;;;44.50;21.73;;;15.40;99.90;;;;;;4320263;33;20432;-74
2021/08/21 05:35:57;;;;;;;43.10;21.90;;;15.50;99.90;;;;;;4319322;33;20200;-74
2021/08/21 05:38:23;;;;;;;43.47;21.07;;;15.40;99.90;;;;;;4317648;33;20173;-74
2021/08/21 05:40:50;;;;;;;41.20;20.77;;;15.40;99.90;;;;;;4319037;33;20197;-74
2021/08/21 05:43:17;;;;;;;43.10;20.90;;;15.50;99.90;;;;;;4318872;33;20138;-75
2021/08/21 05:45:44;;;;;;;43.27;21.70;;;15.60;99.90;;;;;;4320381;33;20180;-75
2021/08/21 05:48:11;;;;;;;39.33;20.23;;;15.70;99.90;;;;;;4319444;33;20138;-75
2021/08/21 05:50:38;;;;;;;40.17;21.07;;;15.80;99.90;;;;;;4319588;33;20239;-75
2021/08/21 05:53:05;;;;;;;40.23;20.53;;;15.80;99.90;;;;;;4320405;33;20157;-75
2021/08/21 05:55:32;;;;;;;41.47;21.33;;;15.80;99.90;;;;;;4320365;33;20145;-75
2021/08/21 05:57:59;;;;;;;38.73;19.53;;;15.70;99.90;;;;;;4318372;33;20198;-75
2021/08/21 06:00:26;;;;;;;41.90;20.10;;;15.70;99.90;;;;;;4320197;33;20201;-75
2021/08/21 06:02:52;;;;;;;41.83;20.07;;;15.70;99.90;;;;;;4320206;33;20130;-74
2021/08/21 06:05:19;;;;;;;41.53;18.87;;;15.70;99.90;;;;;;4321752;33;20157;-74
2021/08/21 06:07:46;;;;;;;35.93;19.07;;;15.70;99.90;;;;;;4322417;33;20196;-74
2021/08/21 06:10:13;;;;;;;39.00;19.67;;;15.80;99.90;;;;;;4322409;33;20204;-74
2021/08/21 06:12:40;;;;;;;38.33;19.60;;;15.80;99.90;;;;;;4322683;33;20520;-74
2021/08/21 06:15:07;;;;;;;37.77;20.07;;;15.80;99.90;;;;;;4322485;33;20176;-74
2021/08/21 06:17:34;;;;;;;37.57;19.83;;;15.90;99.90;;;;;;4322818;33;20137;-74
2021/08/21 06:20:03;;;;;;;36.70;20.13;;;16.00;99.90;;;;;;4322774;33;20219;-75
2021/08/21 06:22:30;;;;;;;37.43;19.30;;;15.90;99.90;;;;;;4321291;33;20539;-75
2021/08/21 06:24:57;;;;;;;37.43;19.70;;;16.00;99.90;;;;;;4322729;33;20176;-75
2021/08/21 06:27:23;;;;;;;34.90;18.33;;;16.00;99.90;;;;;;4320699;33;20129;-75
2021/08/21 06:29:50;;;;;;;37.17;20.40;;;16.10;99.90;;;;;;4322638;33;20129;-75
2021/08/21 06:32:17;;;;;;;36.33;20.00;;;16.00;99.90;;;;;;4321946;33;20511;-75
2021/08/21 06:34:44;;;;;;;35.20;19.23;;;16.00;99.90;;;;;;4322192;33;20504;-75
2021/08/21 06:37:10;;;;;;;34.30;19.27;;;16.00;99.90;;;;;;4320684;33;20417;-75
2021/08/21 06:39:37;;;;;;;37.90;20.20;;;16.00;99.90;;;;;;4320579;33;20196;-75
2021/08/21 06:42:04;;;;;;;35.70;18.90;;;15.90;99.90;;;;;;4321374;33;20129;-76
2021/08/21 06:44:31;;;;;;;35.00;18.83;;;15.90;99.90;;;;;;4307600;33;20413;-75
2021/08/21 06:46:57;;;;;;;36.37;18.53;;;15.90;99.90;;;;;;4321164;33;20187;-75
2021/08/21 06:49:25;;;;;;;33.73;18.77;;;15.80;99.90;;;;;;4321374;33;20188;-75
2021/08/21 06:51:51;;;;;;;36.43;18.43;;;15.90;99.90;;;;;;4322476;33;20189;-76
2021/08/21 06:54:18;;;;;;;35.03;18.83;;;16.10;99.90;;;;;;4320890;33;20141;-76
2021/08/21 06:56:45;;;;;;;35.27;19.13;;;16.20;99.90;;;;;;4322505;33;20398;-75
2021/08/21 06:59:12;;;;;;;33.33;18.40;;;16.30;99.90;;;;;;4322171;33;20409;-75
2021/08/21 07:01:39;;;;;;;35.10;19.43;;;16.50;99.90;;;;;;4320544;33;20205;-76
2021/08/21 07:04:06;;;;;;;35.67;20.20;;;16.50;99.90;;;;;;4322432;33;20130;-75
2021/08/21 07:06:33;;;;;;;30.50;17.30;;;16.60;99.90;;;;;;4322918;33;20153;-76
2021/08/21 07:09:00;;;;;;;31.67;17.20;;;16.80;99.90;;;;;;4322225;33;20153;-75
2021/08/21 07:11:27;;;;;;;27.77;16.33;;;16.90;99.90;;;;;;4320960;33;20183;-76
2021/08/21 07:13:54;;;;;;;29.10;16.43;;;16.90;99.90;;;;;;4321044;33;20153;-76
2021/08/21 07:16:20;;;;;;;26.40;15.10;;;17.00;99.90;;;;;;4320377;33;20200;-76
2021/08/21 07:18:48;;;;;;;26.57;15.67;;;17.20;99.90;;;;;;4321834;33;20161;-76
2021/08/21 07:21:14;;;;;;;24.70;14.53;;;17.30;99.90;;;;;;4320403;33;20425;-75
2021/08/21 07:23:41;;;;;;;23.17;13.33;;;17.30;99.90;;;;;;4321224;33;20159;-75
2021/08/21 07:26:08;;;;;;;21.97;13.10;;;17.40;99.90;;;;;;4320507;33;20185;-75
2021/08/21 07:28:35;;;;;;;21.57;13.20;;;17.60;99.90;;;;;;4319438;33;20146;-75
2021/08/21 07:31:02;;;;;;;19.77;11.37;;;17.70;99.90;;;;;;4320484;33;20213;-75
2021/08/21 07:33:29;;;;;;;17.90;11.40;;;17.70;99.90;;;;;;4321652;33;20133;-75
2021/08/21 07:35:56;;;;;;;15.80;10.13;;;17.80;99.90;;;;;;4321123;33;20236;-76
2021/08/21 07:38:22;;;;;;;15.07;9.83;;;17.90;99.90;;;;;;4321624;33;20419;-75
2021/08/21 07:40:50;;;;;;;17.07;10.67;;;18.10;99.90;;;;;;4321437;33;20149;-76
2021/08/21 07:43:17;;;;;;;14.97;9.20;;;18.10;99.90;;;;;;4321436;33;20491;-76
2021/08/21 07:45:46;;;;;;;13.90;8.50;;;18.10;99.90;;;;;;4319615;33;20216;-76
2021/08/21 07:48:15;;;;;;;14.67;9.23;;;18.10;99.90;;;;;;4319938;33;20180;-76
2021/08/21 07:50:43;;;;;;;13.87;9.07;;;18.20;99.90;;;;;;4320578;33;20160;-76
2021/08/21 07:53:11;;;;;;;14.73;9.10;;;18.10;99.90;;;;;;4320828;33;20137;-76
2021/08/21 07:55:38;;;;;;;14.27;9.40;;;18.00;99.90;;;;;;4319604;33;20165;-76
2021/08/21 07:58:05;;;;;;;15.43;9.03;;;18.00;99.90;;;;;;4320730;33;20146;-76
2021/08/21 08:00:33;;;;;;;14.63;9.10;;;17.90;99.90;;;;;;4319491;33;20137;-76
2021/08/21 08:03:00;;;;;;;16.33;10.17;;;18.10;99.90;;;;;;4320397;33;20151;-76
2021/08/21 08:05:27;;;;;;;15.83;10.17;;;18.10;99.90;;;;;;4319433;33;20222;-76
2021/08/21 08:07:54;;;;;;;16.57;10.57;;;18.20;99.90;;;;;;4320493;33;20133;-76
2021/08/21 08:10:23;;;;;;;15.23;9.50;;;18.40;99.90;;;;;;4306330;33;20156;-76
2021/08/21 08:12:49;;;;;;;15.17;9.10;;;18.40;99.90;;;;;;4320792;33;20140;-76
2021/08/21 08:15:17;;;;;;;13.83;8.97;;;18.40;99.90;;;;;;4320880;33;20506;-76
2021/08/21 08:17:44;;;;;;;14.03;9.00;;;18.50;99.90;;;;;;4321307;33;20342;-76
2021/08/21 08:20:11;;;;;;;11.07;7.67;;;18.70;99.90;;;;;;4320349;33;20157;-76
2021/08/21 08:22:38;;;;;;;13.27;8.63;;;18.90;99.90;;;;;;4319620;33;20176;-76
2021/08/21 08:25:06;;;;;;;14.07;8.67;;;19.20;99.90;;;;;;4320282;33;20142;-76
2021/08/21 08:27:33;;;;;;;14.60;9.00;;;19.40;99.90;;;;;;4319942;33;20137;-76
2021/08/21 08:30:00;;;;;;;13.40;8.83;;;19.30;99.90;;;;;;4320578;33;20133;-76
2021/08/21 08:32:27;;;;;;;13.07;8.50;;;19.20;99.90;;;;;;4319553;33;20137;-76
2021/08/21 08:34:54;;;;;;;14.43;8.33;;;19.20;99.90;;;;;;4320617;33;20157;-76
2021/08/21 08:37:21;;;;;;;12.07;8.13;;;19.30;99.90;;;;;;4318854;33;20403;-77
2021/08/21 08:39:48;;;;;;;11.87;7.90;;;19.30;99.90;;;;;;4319269;33;20200;-77
2021/08/21 08:42:18;;;;;;;12.80;8.30;;;19.30;99.90;;;;;;4320063;33;20159;-77
2021/08/21 08:44:46;;;;;;;11.67;8.27;;;19.10;99.90;;;;;;4320683;33;20191;-76
2021/08/21 08:47:17;;;;;;;11.77;7.63;;;19.00;99.90;;;;;;4319729;33;20165;-76
2021/08/21 08:49:46;;;;;;;10.40;6.93;;;18.80;99.90;;;;;;4320955;33;20146;-76
2021/08/21 08:52:16;;;;;;;10.60;7.03;;;18.80;99.90;;;;;;4321025;33;20429;-76
2021/08/21 08:54:44;;;;;;;9.53;6.90;;;18.90;99.90;;;;;;4319228;33;20192;-76
2021/08/21 08:57:32;;;;;;;9.60;6.47;;;19.10;99.90;;;;;;4319106;33;20486;-76
2021/08/21 08:59:58;;;;;;;8.87;5.93;;;19.20;99.90;;;;;;4318894;33;20199;-76
2021/08/21 09:02:49;;;;;;;9.80;6.10;;;19.30;99.90;;;;;;4320993;33;20326;-76
2021/08/21 09:05:18;;;;;;;10.07;6.67;;;19.10;99.90;;;;;;4320209;33;20166;-76
2021/08/21 09:07:56;;;;;;;8.50;5.97;;;19.20;99.90;;;;;;4319328;33;20130;-76
2021/08/21 09:10:25;;;;;;;7.53;5.00;;;19.40;99.90;;;;;;4320836;33;20238;-77
2021/08/21 09:13:13;;;;;;;7.40;5.20;;;19.60;99.90;;;;;;4319027;33;20193;-77
2021/08/21 09:15:45;;;;;;;8.03;5.50;;;19.30;99.90;;;;;;4320924;33;20192;-77
2021/08/21 09:18:13;;;;;;;9.60;6.13;;;19.40;99.90;;;;;;4318465;33;20145;-76
2021/08/21 09:20:49;;;;;;;8.43;6.00;;;19.60;99.90;;;;;;4320577;33;20145;-75
2021/08/21 09:23:36;;;;;;;8.07;5.70;;;19.80;99.90;;;;;;4319670;33;20158;-75
2021/08/21 09:26:36;;;;;;;10.20;6.20;;;19.70;99.90;;;;;;4319333;33;20129;-76
2021/08/21 09:29:03;;;;;;;8.40;5.83;;;19.70;99.90;;;;;;4320130;33;20167;-78
2021/08/21 09:31:33;;;;;;;9.83;6.43;;;19.80;99.90;;;;;;4319473;33;20159;-76
2021/08/21 09:34:08;;;;;;;8.60;6.23;;;19.70;99.90;;;;;;4320594;33;20196;-77
2021/08/21 09:36:43;;;;;;;10.40;6.77;;;19.70;99.90;;;;;;4319004;33;20222;-76
2021/08/21 09:39:13;;;;;;;11.83;7.07;;;19.60;99.90;;;;;;4322136;33;20129;-75
2021/08/21 09:41:56;;;;;;;9.63;6.73;;;19.50;99.90;;;;;;4323438;33;20406;-76
2021/08/21 09:44:28;;;;;;;10.03;6.70;;;19.50;99.90;;;;;;4321270;33;20140;-76
2021/08/21 09:47:22;;;;;;;9.63;6.87;;;19.60;99.90;;;;;;4323528;33;20137;-76
2021/08/21 09:49:49;;;;;;;10.50;7.20;;;19.70;99.90;;;;;;4277213;33;20254;-77
2021/08/21 09:52:18;;;;;;;9.40;6.37;;;20.00;99.90;;;;;;4279126;33;20161;-75
2021/08/21 09:55:04;;;;;;;9.83;6.23;;;19.50;99.90;;;;;;4278073;33;20180;-75
2021/08/21 09:57:31;;;;;;;8.60;6.07;;;19.50;99.90;;;;;;4277077;33;20162;-74
2021/08/21 10:00:03;;;;;;;9.63;5.93;;;19.40;99.90;;;;;;4277083;33;20521;-75
2021/08/21 10:02:32;;;;;;;8.43;6.00;;;19.50;99.90;;;;;;4276126;33;20389;-76
2021/08/21 10:05:00;;;;;;;9.07;6.27;;;19.50;99.90;;;;;;4277746;33;20399;-76
2021/08/21 10:07:41;;;;;;;8.50;5.50;;;19.70;99.90;;;;;;4277830;33;20205;-77
2021/08/21 10:10:09;;;;;;;7.77;5.10;;;19.60;99.90;;;;;;4275863;33;20435;-75
2021/08/21 10:12:37;;;;;;;6.73;4.80;;;19.70;99.90;;;;;;4277297;33;20146;-75
2021/08/21 10:15:04;;;;;;;5.73;4.50;;;19.80;99.90;;;;;;4275913;33;20150;-75
2021/08/21 10:17:32;;;;;;;6.63;4.70;;;19.90;99.90;;;;;;4276519;33;20197;-76
2021/08/21 10:19:58;;;;;;;6.43;4.60;;;19.90;99.90;;;;;;4277302;33;20613;-75
2021/08/21 10:22:27;;;;;;;6.87;5.00;;;20.00;99.90;;;;;;4275794;33;20146;-76
2021/08/21 10:25:01;;;;;;;6.50;4.87;;;20.30;99.90;;;;;;4275727;33;20198;-75
2021/08/21 10:27:58;;;;;;;7.27;4.57;;;20.30;99.90;;;;;;4299411;33;20504;-76
2021/08/21 10:30:45;;;;;;;5.70;4.03;;;20.20;99.90;;;;;;4307069;33;20155;-77
2021/08/21 10:33:13;;;;;;;7.83;4.07;;;20.30;99.90;;;;;;4306550;33;20160;-76
2021/08/21 10:35:46;;;;;;;7.27;4.20;;;20.30;99.90;;;;;;4307565;33;20192;-77
2021/08/21 10:38:35;;;;;;;5.70;3.90;;;20.40;99.90;;;;;;4306346;33;20130;-76
2021/08/21 10:41:21;;;;;;;5.57;3.80;;;20.30;99.90;;;;;;4307893;33;20138;-77
2021/08/21 10:43:54;;;;;;;5.90;3.33;;;20.20;99.90;;;;;;4306416;33;20204;-76
2021/08/21 10:46:30;;;;;;;5.13;3.30;;;20.10;99.90;;;;;;4306219;33;20159;-77
2021/08/21 10:48:57;;;;;;;6.70;4.30;;;20.20;99.90;;;;;;4305649;33;20133;-76
2021/08/21 10:51:37;;;;;;;5.93;4.10;;;20.30;99.90;;;;;;4306976;33;20467;-76
2021/08/21 10:54:27;;;;;;;4.90;3.60;;;20.30;99.90;;;;;;4307180;33;20134;-78
2021/08/21 10:56:55;;;;;;;4.47;3.20;;;20.70;99.90;;;;;;4298809;33;20260;-77
2021/08/21 10:59:48;;;;;;;4.60;3.47;;;21.90;99.90;;;;;;4306022;33;20156;-75
2021/08/21 11:02:20;;;;;;;6.53;3.63;;;23.50;99.90;;;;;;4303998;33;20174;-77
2021/08/21 11:04:47;;;;;;;5.37;3.83;;;24.50;99.90;;;;;;4306244;33;20133;-76
2021/08/21 11:07:29;;;;;;;4.83;3.53;;;25.40;99.90;;;;;;4306109;33;20209;-76
2021/08/21 11:10:21;;;;;;;6.35;4.35;;;25.80;99.90;;;;;;4307877;33;20133;-78
2021/08/21 11:12:51;;;;;;;5.87;4.30;;;26.40;99.90;;;;;;4306460;33;20197;-78
2021/08/21 11:15:24;;;;;;;4.75;3.80;;;27.00;99.90;;;;;;4305660;33;20233;-77
2021/08/21 11:17:51;;;;;;;5.30;3.97;;;26.90;99.90;;;;;;4306375;33;20137;-77
2021/08/21 11:20:25;;;;;;;4.80;3.92;;;26.70;99.90;;;;;;4307327;33;20176;-77
2021/08/21 11:23:07;;;;;;;5.85;4.60;;;25.30;99.90;;;;;;4306942;33;20492;-76
2021/08/21 11:25:34;;;;;;;5.07;3.97;;;24.20;99.90;;;;;;4305823;33;20218;-76
2021/08/21 11:28:03;;;;;;;5.00;3.80;;;24.50;99.90;;;;;;4305758;33;20133;-78
2021/08/21 11:30:30;;;;;;;5.93;4.05;;;25.70;99.90;;;;;;4305832;33;20187;-76
2021/08/21 11:33:07;;;;;;;5.47;4.28;;;26.60;99.90;;;;;;4305966;33;20133;-77
2021/08/21 11:35:51;;;;;;;5.87;3.80;;;26.80;99.90;;;;;;4309583;33;20161;-76
2021/08/21 11:38:33;;;;;;;4.90;4.15;;;27.10;99.90;;;;;;4299857;33;20140;-76
2021/08/21 11:41:15;;;;;;;4.40;3.70;;;26.60;99.90;;;;;;4320038;33;20133;-76
2021/08/21 11:43:43;;;;;;;4.72;4.12;;;27.00;99.90;;;;;;4320805;33;20209;-77
2021/08/21 11:46:22;;;;;;;3.70;3.30;;;28.20;99.90;;;;;;4320158;33;20164;-77
2021/08/21 11:48:48;;;;;;;4.45;3.40;;;28.00;99.30;;;;;;4321442;33;20129;-76
2021/08/21 11:51:21;;;;;;;4.87;3.60;;;27.60;99.50;;;;;;4320817;33;20543;-76
2021/08/21 11:53:49;;;;;;;4.75;3.70;;;27.30;98.30;;;;;;4321508;33;20130;-77
2021/08/21 11:56:16;;;;;;;5.22;3.72;;;26.30;99.70;;;;;;4321638;33;20436;-75
2021/08/21 11:58:46;;;;;;;3.87;3.50;;;26.00;98.70;;;;;;4321291;33;20133;-77
2021/08/21 12:01:18;;;;;;;3.42;3.08;;;25.70;99.90;;;;;;4321314;33;20189;-76
2021/08/21 12:06:29;;;;;;;3.90;3.10;;;28.00;99.60;;;;;;4319796;33;20161;-76
2021/08/21 12:09:10;;;;;;;4.07;3.30;;;29.20;96.70;;;;;;4321985;33;20133;-78
2021/08/21 12:11:45;;;;;;;3.90;3.40;;;28.00;93.50;;;;;;4321446;33;20192;-76
2021/08/21 12:14:14;;;;;;;4.20;3.60;;;27.20;95.20;;;;;;4320214;33;20137;-76
2021/08/21 12:16:41;;;;;;;3.67;3.30;;;26.70;96.80;;;;;;4320836;33;20193;-75
2021/08/21 12:19:09;;;;;;;4.30;3.47;;;26.60;96.00;;;;;;4321274;33;20129;-78
2021/08/21 12:21:36;;;;;;;4.12;3.15;;;26.10;97.80;;;;;;4319575;33;20167;-75
2021/08/21 12:24:08;;;;;;;4.60;3.20;;;25.90;98.60;;;;;;4319367;33;20126;-77
2021/08/21 12:26:44;;;;;;;4.10;3.35;;;26.00;99.20;;;;;;4319792;33;20193;-77
2021/08/21 12:29:30;;;;;;;4.55;3.58;;;26.90;99.70;;;;;;4321118;33;20197;-77
2021/08/21 12:31:59;;;;;;;4.00;3.40;;;26.90;96.40;;;;;;4320293;33;20431;-76
2021/08/21 12:34:27;;;;;;;4.35;3.47;;;27.10;96.80;;;;;;4320123;33;20201;-74
2021/08/21 12:37:03;;;;;;;4.18;3.30;;;27.40;94.10;;;;;;4318755;33;20157;-75
2021/08/21 12:39:30;;;;;;;4.45;3.33;;;28.00;94.60;;;;;;4320878;33;20169;-76
2021/08/21 12:42:03;;;;;;;3.67;3.00;;;28.00;93.20;;;;;;4320840;33;20133;-77
2021/08/21 12:44:29;;;;;;;4.78;3.42;;;27.80;93.40;;;;;;4320805;33;20195;-77
2021/08/21 12:46:59;;;;;;;4.25;3.05;;;28.70;91.90;;;;;;4319026;33;20145;-77